Time;durP1;ratioP1;P1;durP2;ratioP2;P2;SDS_P1;SDS_P2;PMS_P1;PMS_P2;Temp;Humidity;BMP_temperature;BMP_pressure;BME280_temperature;BME280_humidity;BME280_pressure;Samples;Min_cycle;Max_cycle;Signal;HPM_P1;HPM_P2
2023/03/03 00:02:37;;;;;;;5.95;3.88;;;;;;;;;;10383401;28;20593;-81
2023/03/03 00:07:40;;;;;;;7.25;4.00;;;;;;;;;;10388974;28;20056;-82
2023/03/03 00:12:49;;;;;;;5.57;3.58;;;;;;;;;;10372681;28;20045;-82
2023/03/03 00:17:54;;;;;;;8.27;4.65;;;;;;;;;;10367814;28;20041;-82
2023/03/03 00:23:06;;;;;;;9.82;4.65;;;;;;;;;;10370240;28;20139;-81
2023/03/03 00:28:20;;;;;;;6.43;3.97;;;;;;;;;;10364706;28;20076;-82
2023/03/03 00:33:31;;;;;;;5.32;3.78;;;;;;;;;;10368647;28;20041;-81
2023/03/03 00:38:36;;;;;;;6.70;3.83;;;;;;;;;;10360606;28;20041;-82
2023/03/03 00:43:42;;;;;;;5.77;3.27;;;;;;;;;;10379730;28;20045;-83
2023/03/03 00:48:47;;;;;;;7.60;3.45;;;;;;;;;;10387178;28;20049;-83
2023/03/03 00:53:51;;;;;;;4.90;2.90;;;;;;;;;;10387737;28;20676;-82
2023/03/03 00:58:55;;;;;;;4.43;3.00;;;;;;;;;;10379518;28;20048;-82
2023/03/03 01:04:00;;;;;;;4.90;3.03;;;;;;;;;;10382854;28;20246;-83
2023/03/03 01:09:04;;;;;;;4.80;2.92;;;;;;;;;;10373802;28;20120;-83
2023/03/03 01:14:11;;;;;;;5.80;3.33;;;;;;;;;;10371301;28;20380;-82
2023/03/03 01:19:14;;;;;;;5.07;3.00;;;;;;;;;;10367679;28;20033;-82
2023/03/03 01:24:17;;;;;;;5.63;3.00;;;;;;;;;;10371067;28;20076;-82
2023/03/03 01:29:22;;;;;;;5.13;3.00;;;;;;;;;;10384806;28;20101;-82
2023/03/03 01:34:25;;;;;;;7.30;3.30;;;;;;;;;;10375118;28;20520;-81
2023/03/03 01:39:29;;;;;;;6.30;3.38;;;;;;;;;;10366777;28;20624;-81
2023/03/03 01:44:33;;;;;;;6.10;3.22;;;;;;;;;;10385791;28;20065;-81
2023/03/03 01:49:41;;;;;;;5.65;3.30;;;;;;;;;;10391693;28;20542;-82
2023/03/03 01:54:48;;;;;;;5.53;3.65;;;;;;;;;;10380763;28;20773;-81
2023/03/03 01:59:55;;;;;;;5.20;3.47;;;;;;;;;;10380063;28;20431;-81
2023/03/03 02:04:58;;;;;;;5.75;3.30;;;;;;;;;;10374233;28;20704;-81
2023/03/03 02:10:07;;;;;;;4.22;3.00;;;;;;;;;;10368891;28;20056;-81
2023/03/03 02:15:22;;;;;;;5.03;3.00;;;;;;;;;;10376231;28;20053;-81
2023/03/03 02:20:45;;;;;;;5.70;3.28;;;;;;;;;;10384028;28;20144;-81
2023/03/03 02:26:02;;;;;;;5.95;3.08;;;;;;;;;;10378178;28;20042;-82
2023/03/03 02:31:09;;;;;;;6.35;3.67;;;;;;;;;;10376415;28;20050;-82
2023/03/03 02:36:15;;;;;;;5.50;3.13;;;;;;;;;;10402382;28;20092;-83
2023/03/03 02:41:30;;;;;;;5.93;3.63;;;;;;;;;;10420284;28;20077;-82
2023/03/03 02:46:35;;;;;;;;;;;;;;;;;;10392573;28;20072;-82
2023/03/03 02:51:39;;;;;;;5.35;3.08;;;;;;;;;;10379541;28;20567;-82
2023/03/03 02:56:44;;;;;;;7.32;3.22;;;;;;;;;;10383188;28;20065;-82
2023/03/03 03:02:09;;;;;;;5.43;3.53;;;;;;;;;;10240509;28;20095;-82
2023/03/03 03:07:12;;;;;;;4.38;3.30;;;;;;;;;;10258270;28;20039;-82
2023/03/03 03:12:18;;;;;;;4.78;2.92;;;;;;;;;;10260010;28;20126;-82
2023/03/03 03:17:23;;;;;;;6.13;3.20;;;;;;;;;;10263661;28;20061;-81
2023/03/03 03:22:28;;;;;;;5.88;3.38;;;;;;;;;;10399697;28;20076;-82
2023/03/03 03:27:34;;;;;;;6.03;3.58;;;;;;;;;;10395047;28;20095;-81
2023/03/03 03:32:37;;;;;;;7.05;4.30;;;;;;;;;;10384901;28;20512;-81
2023/03/03 03:37:41;;;;;;;5.93;3.55;;;;;;;;;;10384678;28;20127;-81
2023/03/03 03:42:47;;;;;;;7.40;4.07;;;;;;;;;;10382815;28;20049;-81
2023/03/03 03:47:51;;;;;;;8.23;4.15;;;;;;;;;;10381349;28;20412;-82
2023/03/03 03:52:54;;;;;;;5.60;3.53;;;;;;;;;;10373807;28;20056;-81
2023/03/03 03:58:00;;;;;;;5.57;3.60;;;;;;;;;;10382520;28;20049;-81
2023/03/03 04:03:03;;;;;;;7.43;3.47;;;;;;;;;;10377495;28;20053;-81
2023/03/03 04:08:08;;;;;;;7.63;3.80;;;;;;;;;;10379194;28;20176;-81
2023/03/03 04:13:13;;;;;;;5.88;3.30;;;;;;;;;;10374695;28;20649;-82
2023/03/03 04:18:17;;;;;;;7.57;4.05;;;;;;;;;;10381175;28;20057;-82
2023/03/03 04:23:22;;;;;;;7.53;3.40;;;;;;;;;;10377446;28;20045;-81
2023/03/03 04:28:27;;;;;;;11.05;4.97;;;;;;;;;;10365462;28;20101;-81
2023/03/03 04:33:30;;;;;;;18.27;8.50;;;;;;;;;;10374039;28;20049;-81
2023/03/03 04:38:35;;;;;;;39.63;14.98;;;;;;;;;;10383513;28;20096;-81
2023/03/03 04:43:40;;;;;;;38.30;14.18;;;;;;;;;;10362146;28;20096;-81
2023/03/03 04:48:44;;;;;;;21.02;9.82;;;;;;;;;;10378590;28;20133;-81
2023/03/03 04:53:49;;;;;;;13.57;6.20;;;;;;;;;;10380963;28;20075;-81
2023/03/03 04:58:53;;;;;;;12.52;5.30;;;;;;;;;;10374249;28;20048;-83
2023/03/03 05:03:57;;;;;;;19.85;9.35;;;;;;;;;;10384811;28;20034;-82
2023/03/03 05:09:00;;;;;;;11.80;6.28;;;;;;;;;;10366262;28;20045;-81
2023/03/03 05:14:06;;;;;;;9.80;5.38;;;;;;;;;;10385514;28;20120;-81
2023/03/03 05:19:10;;;;;;;;;;;;;;;;;;10362797;28;20409;-81
2023/03/03 05:24:14;;;;;;;12.98;5.70;;;;;;;;;;10370936;28;20055;-81
2023/03/03 05:29:19;;;;;;;11.27;5.75;;;;;;;;;;10357600;28;20087;-82
2023/03/03 05:34:22;;;;;;;10.93;5.57;;;;;;;;;;10378264;28;20041;-81
2023/03/03 05:39:26;;;;;;;7.90;4.85;;;;;;;;;;10373428;28;20053;-81
2023/03/03 05:44:31;;;;;;;8.50;4.68;;;;;;;;;;10383466;28;20041;-82
2023/03/03 05:49:35;;;;;;;8.13;5.10;;;;;;;;;;10395161;28;20042;-80
2023/03/03 05:54:41;;;;;;;13.77;6.97;;;;;;;;;;10375721;28;20050;-80
2023/03/03 05:59:46;;;;;;;14.70;7.07;;;;;;;;;;10385211;28;20721;-80
2023/03/03 06:04:49;;;;;;;17.55;7.80;;;;;;;;;;10385092;28;20101;-79
2023/03/03 06:09:53;;;;;;;18.25;7.72;;;;;;;;;;10388484;28;20084;-83
2023/03/03 06:14:58;;;;;;;20.63;8.85;;;;;;;;;;10385292;28;20049;-81
2023/03/03 06:20:02;;;;;;;20.83;7.90;;;;;;;;;;10379400;28;20041;-83
2023/03/03 06:25:06;;;;;;;14.00;6.95;;;;;;;;;;10394474;28;20053;-82
2023/03/03 06:30:12;;;;;;;14.85;6.63;;;;;;;;;;10382317;28;20526;-80
2023/03/03 06:35:17;;;;;;;19.48;8.35;;;;;;;;;;10375018;28;20089;-83
2023/03/03 06:40:20;;;;;;;16.75;7.75;;;;;;;;;;10393581;28;20065;-84
2023/03/03 06:45:25;;;;;;;15.85;8.07;;;;;;;;;;10381271;28;20045;-83
2023/03/03 06:50:28;;;;;;;14.18;6.65;;;;;;;;;;10381190;28;20619;-82
2023/03/03 06:55:32;;;;;;;14.63;7.18;;;;;;;;;;10383129;28;20046;-82
2023/03/03 07:00:36;;;;;;;18.60;8.40;;;;;;;;;;10388608;28;20056;-81
2023/03/03 07:05:40;;;;;;;18.05;8.18;;;;;;;;;;10380265;28;20041;-81
2023/03/03 07:10:44;;;;;;;11.57;6.40;;;;;;;;;;10387740;28;20120;-81
2023/03/03 07:15:50;;;;;;;10.65;5.55;;;;;;;;;;10371485;28;20064;-80
2023/03/03 07:20:53;;;;;;;9.02;5.15;;;;;;;;;;10380857;28;20269;-81
2023/03/03 07:25:56;;;;;;;10.60;5.57;;;;;;;;;;10375173;28;20045;-82
2023/03/03 07:31:01;;;;;;;13.95;6.00;;;;;;;;;;10384945;28;20038;-81
2023/03/03 07:36:19;;;;;;;10.23;5.10;;;;;;;;;;10381827;28;20107;-82
2023/03/03 07:41:23;;;;;;;10.35;5.32;;;;;;;;;;10376335;28;20053;-82
2023/03/03 07:46:34;;;;;;;10.15;5.20;;;;;;;;;;10383958;28;20061;-82
2023/03/03 07:51:40;;;;;;;12.30;6.13;;;;;;;;;;10384791;28;20065;-82
2023/03/03 07:56:44;;;;;;;10.35;5.57;;;;;;;;;;10383861;28;20051;-83
2023/03/03 08:01:54;;;;;;;9.40;5.63;;;;;;;;;;10387104;28;20125;-82
2023/03/03 08:06:58;;;;;;;15.75;7.63;;;;;;;;;;10387595;28;20049;-82
2023/03/03 08:12:22;;;;;;;17.73;9.15;;;;;;;;;;10386865;28;20105;-82
2023/03/03 08:17:35;;;;;;;18.33;8.75;;;;;;;;;;10363655;28;20037;-81
2023/03/03 08:22:38;;;;;;;15.02;7.78;;;;;;;;;;10379127;28;20740;-83
2023/03/03 08:27:41;;;;;;;14.32;7.57;;;;;;;;;;10386729;28;20060;-82
2023/03/03 08:32:46;;;;;;;15.20;8.23;;;;;;;;;;10386546;28;20048;-82
2023/03/03 08:37:51;;;;;;;14.75;8.15;;;;;;;;;;10374196;28;20045;-82
2023/03/03 08:42:54;;;;;;;14.45;7.13;;;;;;;;;;10379170;28;20048;-82
2023/03/03 08:48:01;;;;;;;13.38;7.53;;;;;;;;;;10421718;23;20408;-85
2023/03/03 08:53:09;;;;;;;13.30;6.75;;;;;;;;;;10360421;28;20048;-85
2023/03/03 08:58:13;;;;;;;18.60;9.63;;;;;;;;;;10349884;28;20042;-86
2023/03/03 09:03:18;;;;;;;16.02;9.07;;;;;;;;;;10368504;28;20103;-88
2023/03/03 09:08:22;;;;;;;17.13;9.35;;;;;;;;;;10374298;28;20084;-85
2023/03/03 09:13:28;;;;;;;14.13;8.52;;;;;;;;;;10335964;28;20035;-88
2023/03/03 09:18:39;;;;;;;22.40;11.60;;;;;;;;;;10362805;28;20042;-86
2023/03/03 09:23:43;;;;;;;15.07;8.57;;;;;;;;;;10331151;28;20046;-86
2023/03/03 09:28:46;;;;;;;28.33;16.33;;;;;;;;;;10368037;28;20045;-86
2023/03/03 09:33:56;;;;;;;18.52;11.07;;;;;;;;;;10368649;28;20052;-88
2023/03/03 09:39:01;;;;;;;14.90;8.07;;;;;;;;;;10341393;28;20050;-89
2023/03/03 09:44:21;;;;;;;15.77;8.43;;;;;;;;;;10368918;28;20044;-89
2023/03/03 09:49:34;;;;;;;10.93;6.80;;;;;;;;;;10373770;28;20051;-88
2023/03/03 09:55:00;;;;;;;11.15;6.60;;;;;;;;;;10350779;28;20046;-90
2023/03/03 10:00:30;;;;;;;16.52;8.85;;;;;;;;;;10355535;28;20111;-88
2023/03/03 10:05:44;;;;;;;13.80;7.97;;;;;;;;;;10381625;28;20050;-88
2023/03/03 10:11:00;;;;;;;15.13;8.48;;;;;;;;;;10367715;28;20125;-89
2023/03/03 10:16:22;;;;;;;10.88;6.38;;;;;;;;;;10391737;28;20053;-88
2023/03/03 10:21:35;;;;;;;20.15;12.68;;;;;;;;;;10390002;28;20049;-89
2023/03/03 10:26:49;;;;;;;13.63;8.73;;;;;;;;;;10366576;28;20815;-89
2023/03/03 10:32:40;;;;;;;19.48;10.50;;;;;;;;;;10374267;28;20038;-86
2023/03/03 10:37:58;;;;;;;17.70;9.52;;;;;;;;;;10370175;28;20050;-89
2023/03/03 10:43:20;;;;;;;15.40;9.02;;;;;;;;;;10384068;28;20064;-90
2023/03/03 10:48:50;;;;;;;11.88;7.22;;;;;;;;;;10392504;28;20051;-88
2023/03/03 10:54:07;;;;;;;13.20;8.05;;;;;;;;;;10374631;28;20268;-88
2023/03/03 10:59:24;;;;;;;11.93;6.80;;;;;;;;;;10363846;28;20095;-91
2023/03/03 11:04:56;;;;;;;10.27;6.32;;;;;;;;;;10368618;28;20334;-89
2023/03/03 11:10:15;;;;;;;11.88;7.15;;;;;;;;;;10372407;28;20056;-89
2023/03/03 11:15:31;;;;;;;14.38;8.75;;;;;;;;;;10368836;28;20065;-88
2023/03/03 11:20:43;;;;;;;12.32;7.60;;;;;;;;;;10365769;28;20041;-88
2023/03/03 11:25:54;;;;;;;14.63;8.25;;;;;;;;;;10353655;28;20042;-89
2023/03/03 11:31:18;;;;;;;15.23;9.23;;;;;;;;;;10364696;28;20449;-89
2023/03/03 11:36:27;;;;;;;13.60;8.13;;;;;;;;;;10353745;28;20042;-89
2023/03/03 11:41:37;;;;;;;11.88;7.00;;;;;;;;;;10387252;28;20054;-88
2023/03/03 11:46:46;;;;;;;13.63;8.45;;;;;;;;;;10382224;28;20129;-89
2023/03/03 11:52:03;;;;;;;12.10;7.55;;;;;;;;;;10371149;28;20060;-88
2023/03/03 11:57:20;;;;;;;11.63;7.23;;;;;;;;;;10364419;28;20046;-88
2023/03/03 12:02:48;;;;;;;10.63;6.40;;;;;;;;;;10354333;28;20497;-88
2023/03/03 12:08:02;;;;;;;13.45;7.70;;;;;;;;;;10358181;28;20128;-88
2023/03/03 12:13:15;;;;;;;12.40;7.85;;;;;;;;;;10367110;28;20046;-88
2023/03/03 12:18:37;;;;;;;13.13;7.82;;;;;;;;;;10341880;28;20138;-89
2023/03/03 12:24:02;;;;;;;12.63;7.32;;;;;;;;;;10356551;28;20162;-88
2023/03/03 12:29:20;;;;;;;9.27;5.78;;;;;;;;;;10373481;28;20038;-89
2023/03/03 12:34:32;;;;;;;9.75;6.63;;;;;;;;;;10349796;28;20099;-89
2023/03/03 12:39:52;;;;;;;14.48;9.05;;;;;;;;;;10380017;28;20049;-91
2023/03/03 12:45:10;;;;;;;14.50;8.50;;;;;;;;;;10378680;28;20049;-89
2023/03/03 12:50:27;;;;;;;15.23;8.60;;;;;;;;;;10358136;28;20061;-88
2023/03/03 12:55:40;;;;;;;14.33;8.60;;;;;;;;;;10373890;28;20128;-89
2023/03/03 13:00:54;;;;;;;14.70;8.88;;;;;;;;;;10382507;28;20046;-88
2023/03/03 13:06:09;;;;;;;13.35;7.75;;;;;;;;;;10362027;28;20714;-89
2023/03/03 13:11:33;;;;;;;19.45;10.57;;;;;;;;;;10378218;28;20107;-88
2023/03/03 13:16:44;;;;;;;18.60;11.35;;;;;;;;;;10366515;28;20038;-89
2023/03/03 13:21:54;;;;;;;13.00;8.18;;;;;;;;;;10388752;28;20038;-88
2023/03/03 13:27:05;;;;;;;13.48;8.02;;;;;;;;;;10369860;28;20045;-90
2023/03/03 13:32:15;;;;;;;11.73;7.32;;;;;;;;;;10370052;28;20096;-88
2023/03/03 13:37:24;;;;;;;18.17;10.77;;;;;;;;;;10354142;28;20496;-89
2023/03/03 13:42:33;;;;;;;17.55;10.90;;;;;;;;;;10358326;28;20490;-89
2023/03/03 13:47:46;;;;;;;16.00;9.60;;;;;;;;;;10368460;28;20493;-88
2023/03/03 13:53:01;;;;;;;20.92;12.70;;;;;;;;;;10370137;28;20074;-90
2023/03/03 13:58:25;;;;;;;17.67;11.63;;;;;;;;;;10386839;28;20049;-88
2023/03/03 14:03:51;;;;;;;17.38;10.73;;;;;;;;;;10397271;28;20041;-90
2023/03/03 14:09:22;;;;;;;17.80;11.85;;;;;;;;;;10366656;28;20149;-89
2023/03/03 14:14:47;;;;;;;20.40;12.65;;;;;;;;;;10353786;28;20504;-88
2023/03/03 14:19:59;;;;;;;31.55;19.45;;;;;;;;;;10367806;28;20069;-89
2023/03/03 14:25:10;;;;;;;23.27;14.90;;;;;;;;;;10380757;28;20116;-90
2023/03/03 14:30:34;;;;;;;24.55;15.70;;;;;;;;;;10367039;28;20046;-89
2023/03/03 14:35:50;;;;;;;30.40;19.15;;;;;;;;;;10359796;28;20460;-89
2023/03/03 14:41:13;;;;;;;24.90;15.32;;;;;;;;;;10395788;28;20559;-88
2023/03/03 14:46:35;;;;;;;24.33;15.43;;;;;;;;;;10374326;28;20136;-89
2023/03/03 14:51:48;;;;;;;26.48;16.33;;;;;;;;;;10380845;28;20100;-89
2023/03/03 14:57:02;;;;;;;19.38;11.73;;;;;;;;;;10348154;28;20050;-89
2023/03/03 15:02:29;;;;;;;25.88;16.40;;;;;;;;;;10387031;28;20104;-89
2023/03/03 15:07:37;;;;;;;22.40;14.50;;;;;;;;;;10384568;28;20042;-89
2023/03/03 15:12:43;;;;;;;20.00;12.18;;;;;;;;;;10358580;28;20053;-89
2023/03/03 15:17:59;;;;;;;16.55;10.30;;;;;;;;;;10392138;28;20041;-87
2023/03/03 15:23:32;;;;;;;20.75;12.68;;;;;;;;;;10401402;28;20468;-87
2023/03/03 15:28:58;;;;;;;15.05;9.95;;;;;;;;;;10354585;28;20045;-86
2023/03/03 15:34:16;;;;;;;24.20;15.02;;;;;;;;;;10364593;28;20046;-87
2023/03/03 15:39:33;;;;;;;29.33;17.00;;;;;;;;;;10351547;28;20050;-89
2023/03/03 15:44:52;;;;;;;27.17;17.63;;;;;;;;;;10381198;28;20064;-89
2023/03/03 15:50:27;;;;;;;20.42;14.02;;;;;;;;;;10375831;28;20554;-88
2023/03/03 15:55:46;;;;;;;24.40;15.43;;;;;;;;;;10312661;28;20038;-89
2023/03/03 16:00:59;;;;;;;20.40;13.55;;;;;;;;;;10374007;28;20077;-87
2023/03/03 16:06:10;;;;;;;17.25;11.52;;;;;;;;;;10351982;28;20417;-89
2023/03/03 16:11:26;;;;;;;16.75;10.90;;;;;;;;;;10368103;28;20053;-88
2023/03/03 16:16:43;;;;;;;20.88;11.23;;;;;;;;;;10343238;28;20053;-90
2023/03/03 16:21:58;;;;;;;20.50;13.70;;;;;;;;;;10347255;28;20049;-89
2023/03/03 16:27:09;;;;;;;16.48;9.20;;;;;;;;;;10367259;28;20053;-90
2023/03/03 16:32:17;;;;;;;13.68;8.82;;;;;;;;;;10365326;28;20045;-89
2023/03/03 16:37:27;;;;;;;17.25;10.52;;;;;;;;;;10364817;28;20128;-89
2023/03/03 16:42:34;;;;;;;17.40;10.25;;;;;;;;;;10362439;28;20038;-89
2023/03/03 16:47:51;;;;;;;;;;;;;;;;;;10387417;28;20103;-89
2023/03/03 16:53:03;;;;;;;17.80;8.75;;;;;;;;;;10378718;28;19921;-89
2023/03/03 16:58:21;;;;;;;16.98;10.73;;;;;;;;;;10368966;28;20050;-89
2023/03/03 17:03:45;;;;;;;23.60;14.90;;;;;;;;;;10374795;28;20050;-88
2023/03/03 17:09:15;;;;;;;20.83;13.02;;;;;;;;;;10393047;28;20073;-89
2023/03/03 17:14:51;;;;;;;21.35;13.38;;;;;;;;;;10354742;28;20058;-91
2023/03/03 17:20:06;;;;;;;19.38;11.68;;;;;;;;;;10363045;28;20091;-88
2023/03/03 17:25:18;;;;;;;17.55;10.63;;;;;;;;;;10357951;28;20269;-89
2023/03/03 17:30:31;;;;;;;27.63;15.10;;;;;;;;;;10362437;28;20050;-88
2023/03/03 17:35:51;;;;;;;18.35;11.23;;;;;;;;;;10372533;28;20038;-89
2023/03/03 17:41:03;;;;;;;15.85;9.88;;;;;;;;;;10382503;28;20128;-88
2023/03/03 17:46:18;;;;;;;16.05;10.27;;;;;;;;;;10354147;28;20050;-88
2023/03/03 17:51:41;;;;;;;16.73;10.63;;;;;;;;;;10337457;28;20056;-88
2023/03/03 17:56:53;;;;;;;18.85;10.80;;;;;;;;;;10375374;28;20046;-88
2023/03/03 18:02:29;;;;;;;18.92;11.18;;;;;;;;;;10369264;28;20125;-88
2023/03/03 18:07:38;;;;;;;;;;;;;;;;;;10371114;28;20046;-88
2023/03/03 18:12:51;;;;;;;15.10;9.07;;;;;;;;;;10340899;28;19995;-89
2023/03/03 18:18:20;;;;;;;15.73;9.90;;;;;;;;;;10366721;28;20543;-88
2023/03/03 18:23:45;;;;;;;20.25;12.15;;;;;;;;;;10384764;28;20048;-89
2023/03/03 18:28:51;;;;;;;20.10;12.37;;;;;;;;;;10353981;28;20054;-87
2023/03/03 18:34:09;;;;;;;23.97;12.47;;;;;;;;;;10361065;28;20065;-87
2023/03/03 18:39:14;;;;;;;24.70;12.95;;;;;;;;;;10345338;28;20054;-89
2023/03/03 18:44:28;;;;;;;20.40;11.77;;;;;;;;;;10369021;28;20041;-88
2023/03/03 18:50:32;;;;;;;23.90;12.65;;;;;;;;;;10379466;28;20077;-88
2023/03/03 18:55:43;;;;;;;23.83;12.13;;;;;;;;;;10224688;28;20483;-88
2023/03/03 19:00:53;;;;;;;26.77;13.82;;;;;;;;;;10356423;28;20065;-87
2023/03/03 19:05:59;;;;;;;25.60;12.27;;;;;;;;;;10376530;28;20460;-88
2023/03/03 19:11:04;;;;;;;21.17;12.07;;;;;;;;;;10377913;28;20107;-88
2023/03/03 19:16:11;;;;;;;22.55;11.82;;;;;;;;;;10390628;28;20058;-87
2023/03/03 19:21:29;;;;;;;23.48;11.88;;;;;;;;;;10354743;28;20069;-88
2023/03/03 19:26:58;;;;;;;23.63;12.73;;;;;;;;;;10355351;28;20045;-89
2023/03/03 19:32:20;;;;;;;25.50;12.27;;;;;;;;;;10367184;28;20046;-88
2023/03/03 19:37:45;;;;;;;30.48;14.73;;;;;;;;;;10357158;28;20051;-88
2023/03/03 19:43:01;;;;;;;31.40;15.32;;;;;;;;;;10366746;28;20058;-87
2023/03/03 19:48:12;;;;;;;25.92;14.40;;;;;;;;;;10383532;28;20038;-89
2023/03/03 19:53:26;;;;;;;25.38;12.95;;;;;;;;;;10378105;28;20045;-89
2023/03/03 19:58:40;;;;;;;26.85;13.32;;;;;;;;;;10366017;28;20426;-90
2023/03/03 20:04:13;;;;;;;26.08;13.45;;;;;;;;;;10387781;28;20568;-87
2023/03/03 20:09:27;;;;;;;23.52;12.55;;;;;;;;;;10347492;28;20034;-87
2023/03/03 20:14:44;;;;;;;24.08;11.95;;;;;;;;;;10381150;28;20060;-87
2023/03/03 20:19:56;;;;;;;31.80;14.65;;;;;;;;;;10398980;28;20037;-88
2023/03/03 20:25:20;;;;;;;31.05;14.82;;;;;;;;;;10389829;28;20045;-87
2023/03/03 20:30:34;;;;;;;31.73;15.07;;;;;;;;;;10373277;28;20037;-89
2023/03/03 20:35:52;;;;;;;29.15;14.18;;;;;;;;;;10381104;28;20045;-87
2023/03/03 20:41:08;;;;;;;27.25;13.52;;;;;;;;;;10390694;28;20072;-87
2023/03/03 20:46:21;;;;;;;33.25;16.25;;;;;;;;;;10367252;28;20138;-88
2023/03/03 20:51:31;;;;;;;34.60;17.48;;;;;;;;;;10378209;28;20087;-88
2023/03/03 20:56:42;;;;;;;39.25;18.25;;;;;;;;;;10394863;28;20053;-87
2023/03/03 21:01:53;;;;;;;41.45;19.08;;;;;;;;;;10348550;28;20046;-87
2023/03/03 21:06:57;;;;;;;34.25;16.45;;;;;;;;;;10365532;28;20041;-87
2023/03/03 21:12:09;;;;;;;35.67;17.40;;;;;;;;;;10367796;28;20046;-87
2023/03/03 21:17:26;;;;;;;35.90;18.27;;;;;;;;;;10394635;28;20045;-87
2023/03/03 21:22:29;;;;;;;;;;;;;;;;;;10371482;28;20053;-87
2023/03/03 21:27:36;;;;;;;27.42;13.00;;;;;;;;;;10383019;28;19929;-88
2023/03/03 21:32:42;;;;;;;28.92;14.73;;;;;;;;;;10396640;28;20433;-89
2023/03/03 21:37:49;;;;;;;28.53;14.73;;;;;;;;;;10353764;28;20042;-87
2023/03/03 21:43:00;;;;;;;33.88;16.83;;;;;;;;;;10370733;28;20046;-87
2023/03/03 21:48:05;;;;;;;34.60;17.20;;;;;;;;;;10351175;28;20238;-90
2023/03/03 21:53:12;;;;;;;39.53;18.98;;;;;;;;;;10363609;28;20046;-86
2023/03/03 21:58:18;;;;;;;39.92;18.52;;;;;;;;;;10391934;28;20044;-87
2023/03/03 22:03:22;;;;;;;35.45;15.60;;;;;;;;;;10389087;28;20075;-87
2023/03/03 22:08:27;;;;;;;33.80;15.60;;;;;;;;;;10380536;28;20121;-87
2023/03/03 22:13:32;;;;;;;33.75;16.20;;;;;;;;;;10393989;28;20068;-87
2023/03/03 22:18:38;;;;;;;36.28;15.80;;;;;;;;;;10372613;28;20049;-87
2023/03/03 22:23:44;;;;;;;34.72;15.13;;;;;;;;;;10379410;28;20045;-87
2023/03/03 22:28:49;;;;;;;28.98;13.43;;;;;;;;;;10383110;28;20043;-87
2023/03/03 22:33:53;;;;;;;27.73;14.33;;;;;;;;;;10384553;28;20073;-87
2023/03/03 22:38:58;;;;;;;36.40;17.33;;;;;;;;;;10390449;28;20097;-87
2023/03/03 22:44:03;;;;;;;38.78;16.50;;;;;;;;;;10363568;28;20053;-87
2023/03/03 22:49:07;;;;;;;36.08;16.05;;;;;;;;;;10378303;28;20053;-87
2023/03/03 22:54:11;;;;;;;38.13;16.42;;;;;;;;;;10389855;28;20057;-87
2023/03/03 22:59:16;;;;;;;36.42;16.58;;;;;;;;;;10388215;28;20528;-88
2023/03/03 23:04:19;;;;;;;37.47;17.25;;;;;;;;;;10357387;28;20190;-87
2023/03/03 23:09:23;;;;;;;34.47;16.05;;;;;;;;;;10376285;28;20037;-88
2023/03/03 23:14:28;;;;;;;36.25;17.60;;;;;;;;;;10396596;28;20049;-88
2023/03/03 23:19:32;;;;;;;39.28;18.98;;;;;;;;;;10382108;28;20136;-88
2023/03/03 23:24:36;;;;;;;42.47;17.63;;;;;;;;;;10372083;28;20120;-88
2023/03/03 23:29:41;;;;;;;36.22;16.10;;;;;;;;;;10386160;28;20275;-87
2023/03/03 23:34:44;;;;;;;41.08;17.20;;;;;;;;;;10369722;28;20080;-87
2023/03/03 23:39:48;;;;;;;35.75;14.95;;;;;;;;;;10363965;23;20447;-83
2023/03/03 23:44:53;;;;;;;34.95;14.48;;;;;;;;;;10381384;28;20205;-83
2023/03/03 23:49:56;;;;;;;34.60;15.50;;;;;;;;;;10389810;28;20128;-85
2023/03/03 23:54:59;;;;;;;40.67;17.70;;;;;;;;;;10390422;28;20640;-85
